Terminal Aerodrome Forecast
Issued by NWS Pittsburgh, PA

Current Version | Previous Version | Graphics & Text | Print | Product List | Glossary On
Versions: 1 2 3 4 5 6 7 8 9 10 11 12 13 14 15 16 17 18 19 20 21 22 23 24 25 26 27 28 29
286
FTUS41 KPBZ 102108 AAB
TAFPIT
TAF AMD
KPIT 102108Z 1021/1124 24010G20KT 1 1/2SM -SHSN OVC018
     FM110200 27010G15KT 3SM -SHSN OVC012
     FM111200 29010G20KT 6SM -SHSN OVC025=

USA.gov is the U.S. government's official web portal to all federal, state and local government web resources and services.